sensor_id;sensor_type;location;lat;lon;timestamp;pressure;altitude;pressure_sealevel;temperature;humidity
72798;BME280;61084;55.816;37.036;2023-03-31T00:01:29;98905.06;;;1.33;68.48
72798;BME280;61084;55.816;37.036;2023-03-31T00:03:58;98907.75;;;1.30;68.82
72798;BME280;61084;55.816;37.036;2023-03-31T00:06:35;98908.66;;;1.27;68.75
72798;BME280;61084;55.816;37.036;2023-03-31T00:09:13;98912.97;;;1.27;68.70
72798;BME280;61084;55.816;37.036;2023-03-31T00:11:47;98908.63;;;1.29;68.96
72798;BME280;61084;55.816;37.036;2023-03-31T00:14:14;98907.81;;;1.27;69.01
72798;BME280;61084;55.816;37.036;2023-03-31T00:16:42;98900.16;;;1.22;69.07
72798;BME280;61084;55.816;37.036;2023-03-31T00:19:10;98897.63;;;1.21;68.83
72798;BME280;61084;55.816;37.036;2023-03-31T00:21:46;98894.22;;;1.19;68.70
72798;BME280;61084;55.816;37.036;2023-03-31T00:24:14;98894.28;;;1.17;68.91
72798;BME280;61084;55.816;37.036;2023-03-31T00:26:41;98890.13;;;1.10;68.53
72798;BME280;61084;55.816;37.036;2023-03-31T00:29:08;98891.97;;;1.05;68.59
72798;BME280;61084;55.816;37.036;2023-03-31T00:31:35;98883.53;;;0.97;68.74
72798;BME280;61084;55.816;37.036;2023-03-31T00:34:00;98893.03;;;0.97;69.05
72798;BME280;61084;55.816;37.036;2023-03-31T00:36:27;98886.09;;;0.99;69.09
72798;BME280;61084;55.816;37.036;2023-03-31T00:38:58;98889.53;;;0.99;68.98
72798;BME280;61084;55.816;37.036;2023-03-31T00:41:29;98887.91;;;0.94;68.54
72798;BME280;61084;55.816;37.036;2023-03-31T00:46:34;98889.69;;;0.92;69.25
72798;BME280;61084;55.816;37.036;2023-03-31T00:49:03;98888.06;;;0.88;69.05
72798;BME280;61084;55.816;37.036;2023-03-31T00:51:31;98890.03;;;0.78;68.93
72798;BME280;61084;55.816;37.036;2023-03-31T00:54:02;98898.69;;;0.75;69.12
72798;BME280;61084;55.816;37.036;2023-03-31T00:56:39;98897.97;;;0.67;69.24
72798;BME280;61084;55.816;37.036;2023-03-31T00:59:08;98885.19;;;0.61;69.45
72798;BME280;61084;55.816;37.036;2023-03-31T01:01:36;98880.13;;;0.58;69.35
72798;BME280;61084;55.816;37.036;2023-03-31T01:04:04;98882.72;;;0.57;69.25
72798;BME280;61084;55.816;37.036;2023-03-31T01:06:32;98868.97;;;0.56;69.59
72798;BME280;61084;55.816;37.036;2023-03-31T01:08:59;98868.94;;;0.58;69.28
72798;BME280;61084;55.816;37.036;2023-03-31T01:11:31;98863.69;;;0.62;69.31
72798;BME280;61084;55.816;37.036;2023-03-31T01:14:00;98860.28;;;0.60;69.44
72798;BME280;61084;55.816;37.036;2023-03-31T01:16:27;98857.75;;;0.57;69.23
72798;BME280;61084;55.816;37.036;2023-03-31T01:18:53;98855.28;;;0.53;69.48
72798;BME280;61084;55.816;37.036;2023-03-31T01:21:37;98859.56;;;0.52;69.20
72798;BME280;61084;55.816;37.036;2023-03-31T01:24:52;98857.84;;;0.53;69.47
72798;BME280;61084;55.816;37.036;2023-03-31T01:30:24;98860.53;;;0.48;69.44
72798;BME280;61084;55.816;37.036;2023-03-31T01:41:13;98847.81;;;0.39;69.09
72798;BME280;61084;55.816;37.036;2023-03-31T01:44:08;98841.13;;;0.31;69.91
72798;BME280;61084;55.816;37.036;2023-03-31T01:47:08;98845.50;;;0.27;69.69
72798;BME280;61084;55.816;37.036;2023-03-31T01:49:45;98846.47;;;0.23;69.79
72798;BME280;61084;55.816;37.036;2023-03-31T01:52:45;98839.53;;;0.25;69.81
72798;BME280;61084;55.816;37.036;2023-03-31T01:55:19;98833.59;;;0.22;69.72
72798;BME280;61084;55.816;37.036;2023-03-31T01:58:13;98829.41;;;0.16;69.82
72798;BME280;61084;55.816;37.036;2023-03-31T02:00:48;98837.22;;;0.12;69.59
72798;BME280;61084;55.816;37.036;2023-03-31T02:03:48;98824.50;;;0.04;69.24
72798;BME280;61084;55.816;37.036;2023-03-31T02:06:21;98825.47;;;-0.02;70.08
72798;BME280;61084;55.816;37.036;2023-03-31T02:09:01;98822.03;;;-0.02;70.26
72798;BME280;61084;55.816;37.036;2023-03-31T02:11:30;98822.00;;;-0.01;70.16
72798;BME280;61084;55.816;37.036;2023-03-31T02:14:01;98822.81;;;0.02;70.24
72798;BME280;61084;55.816;37.036;2023-03-31T02:16:49;98815.03;;;0.03;70.22
72798;BME280;61084;55.816;37.036;2023-03-31T02:19:18;98816.78;;;0.03;70.07
72798;BME280;61084;55.816;37.036;2023-03-31T02:21:48;98824.50;;;0.04;70.27
72798;BME280;61084;55.816;37.036;2023-03-31T02:24:18;98815.91;;;0.04;70.27
72798;BME280;61084;55.816;37.036;2023-03-31T02:26:52;98813.31;;;0.04;70.35
72798;BME280;61084;55.816;37.036;2023-03-31T02:29:20;98803.16;;;-0.03;70.02
72798;BME280;61084;55.816;37.036;2023-03-31T02:31:46;98803.16;;;-0.04;70.54
72798;BME280;61084;55.816;37.036;2023-03-31T02:34:14;98795.50;;;-0.09;70.33
72798;BME280;61084;55.816;37.036;2023-03-31T02:36:41;98801.56;;;-0.10;70.11
72798;BME280;61084;55.816;37.036;2023-03-31T02:39:16;98812.78;;;-0.12;70.81
72798;BME280;61084;55.816;37.036;2023-03-31T02:41:44;98812.72;;;-0.09;70.21
72798;BME280;61084;55.816;37.036;2023-03-31T02:44:11;98807.63;;;-0.12;70.06
72798;BME280;61084;55.816;37.036;2023-03-31T02:46:38;98802.59;;;-0.18;70.31
72798;BME280;61084;55.816;37.036;2023-03-31T02:49:06;98811.19;;;-0.18;70.31
72798;BME280;61084;55.816;37.036;2023-03-31T02:54:47;98805.31;;;-0.26;70.18
72798;BME280;61084;55.816;37.036;2023-03-31T02:59:51;98805.22;;;-0.20;70.46
72798;BME280;61084;55.816;37.036;2023-03-31T03:02:35;98808.63;;;-0.19;70.22
72798;BME280;61084;55.816;37.036;2023-03-31T03:16:31;98821.59;;;-0.22;69.96
72798;BME280;61084;55.816;37.036;2023-03-31T03:19:00;98824.13;;;-0.21;70.13
72798;BME280;61084;55.816;37.036;2023-03-31T03:21:27;98824.13;;;-0.21;69.83
72798;BME280;61084;55.816;37.036;2023-03-31T03:23:53;98826.66;;;-0.18;70.08
72798;BME280;61084;55.816;37.036;2023-03-31T03:26:19;98813.69;;;-0.15;69.94
72798;BME280;61084;55.816;37.036;2023-03-31T03:28:51;98812.91;;;-0.18;69.62
72798;BME280;61084;55.816;37.036;2023-03-31T03:31:17;98816.25;;;-0.15;69.80
72798;BME280;61084;55.816;37.036;2023-03-31T03:33:43;98809.38;;;-0.14;69.45
72798;BME280;61084;55.816;37.036;2023-03-31T03:36:09;98813.72;;;-0.16;69.56
72798;BME280;61084;55.816;37.036;2023-03-31T03:38:35;98797.41;;;-0.17;69.79
72798;BME280;61084;55.816;37.036;2023-03-31T03:41:01;98805.94;;;-0.15;69.54
72798;BME280;61084;55.816;37.036;2023-03-31T03:43:27;98800.78;;;-0.13;69.61
72798;BME280;61084;55.816;37.036;2023-03-31T03:45:54;98798.16;;;-0.12;69.33
72798;BME280;61084;55.816;37.036;2023-03-31T03:48:20;98794.78;;;-0.15;69.52
72798;BME280;61084;55.816;37.036;2023-03-31T03:50:52;98798.22;;;-0.15;69.46
72798;BME280;61084;55.816;37.036;2023-03-31T03:53:19;98785.28;;;-0.12;69.38
72798;BME280;61084;55.816;37.036;2023-03-31T03:55:45;98786.13;;;-0.13;69.42
72798;BME280;61084;55.816;37.036;2023-03-31T03:58:15;98780.97;;;-0.13;69.42
72798;BME280;61084;55.816;37.036;2023-03-31T04:00:42;98781.78;;;-0.09;69.38
72798;BME280;61084;55.816;37.036;2023-03-31T04:03:10;98777.34;;;-0.04;69.35
72798;BME280;61084;55.816;37.036;2023-03-31T04:05:35;98785.84;;;0.01;69.35
72798;BME280;61084;55.816;37.036;2023-03-31T04:08:01;98781.50;;;0.03;69.02
72798;BME280;61084;55.816;37.036;2023-03-31T04:10:27;98779.75;;;0.05;69.02
72798;BME280;61084;55.816;37.036;2023-03-31T04:12:53;98781.44;;;0.08;68.89
72798;BME280;61084;55.816;37.036;2023-03-31T04:15:19;98768.44;;;0.12;69.08
72798;BME280;61084;55.816;37.036;2023-03-31T04:17:46;98763.13;;;0.18;68.84
72798;BME280;61084;55.816;37.036;2023-03-31T04:20:16;98775.06;;;0.24;68.90
72798;BME280;61084;55.816;37.036;2023-03-31T04:22:42;98766.28;;;0.32;68.57
72798;BME280;61084;55.816;37.036;2023-03-31T04:25:12;98767.84;;;0.38;68.87
72798;BME280;61084;55.816;37.036;2023-03-31T04:27:43;98757.56;;;0.36;68.64
72798;BME280;61084;55.816;37.036;2023-03-31T04:30:14;98741.09;;;0.42;68.39
72798;BME280;61084;55.816;37.036;2023-03-31T04:32:51;98739.25;;;0.47;68.31
72798;BME280;61084;55.816;37.036;2023-03-31T04:35:18;98734.84;;;0.52;68.40
72798;BME280;61084;55.816;37.036;2023-03-31T04:37:49;98735.66;;;0.52;68.08
72798;BME280;61084;55.816;37.036;2023-03-31T04:40:17;98723.72;;;0.50;67.42
72798;BME280;61084;55.816;37.036;2023-03-31T04:42:43;98719.47;;;0.47;67.70
72798;BME280;61084;55.816;37.036;2023-03-31T04:45:12;98716.78;;;0.50;67.72
72798;BME280;61084;55.816;37.036;2023-03-31T04:47:38;98714.91;;;0.57;67.85
72798;BME280;61084;55.816;37.036;2023-03-31T04:50:04;98719.75;;;0.70;67.81
72798;BME280;61084;55.816;37.036;2023-03-31T04:52:30;98726.53;;;0.74;67.33
72798;BME280;61084;55.816;37.036;2023-03-31T04:54:56;98731.69;;;0.74;67.02
72798;BME280;61084;55.816;37.036;2023-03-31T04:57:21;98735.00;;;0.80;67.15
72798;BME280;61084;55.816;37.036;2023-03-31T04:59:47;98727.84;;;0.91;67.45
72798;BME280;61084;55.816;37.036;2023-03-31T05:02:13;98729.50;;;0.93;66.50
72798;BME280;61084;55.816;37.036;2023-03-31T05:04:40;98717.19;;;1.03;66.65
72798;BME280;61084;55.816;37.036;2023-03-31T05:07:06;98707.38;;;1.15;66.97
72798;BME280;61084;55.816;37.036;2023-03-31T05:09:31;98700.31;;;1.22;66.39
72798;BME280;61084;55.816;37.036;2023-03-31T05:11:57;98707.81;;;1.32;66.32
72798;BME280;61084;55.816;37.036;2023-03-31T05:14:23;98711.94;;;1.38;66.17
72798;BME280;61084;55.816;37.036;2023-03-31T05:16:48;98700.66;;;1.40;65.48
72798;BME280;61084;55.816;37.036;2023-03-31T05:19:14;98698.03;;;1.42;65.52
72798;BME280;61084;55.816;37.036;2023-03-31T05:21:40;98696.56;;;1.33;64.78
72798;BME280;61084;55.816;37.036;2023-03-31T05:24:06;98687.38;;;1.23;65.03
72798;BME280;61084;55.816;37.036;2023-03-31T05:26:32;98701.97;;;1.24;65.44
72798;BME280;61084;55.816;37.036;2023-03-31T05:28:57;98703.72;;;1.24;65.18
72798;BME280;61084;55.816;37.036;2023-03-31T05:31:23;98700.22;;;1.25;65.58
72798;BME280;61084;55.816;37.036;2023-03-31T05:33:49;98706.13;;;1.30;64.99
72798;BME280;61084;55.816;37.036;2023-03-31T05:36:16;98707.75;;;1.34;65.13
72798;BME280;61084;55.816;37.036;2023-03-31T05:38:42;98694.03;;;1.32;64.71
72798;BME280;61084;55.816;37.036;2023-03-31T05:41:09;98697.47;;;1.31;63.94
72798;BME280;61084;55.816;37.036;2023-03-31T05:43:36;98693.00;;;1.37;64.02
72798;BME280;61084;55.816;37.036;2023-03-31T05:46:02;98708.84;;;1.56;65.00
72798;BME280;61084;55.816;37.036;2023-03-31T05:48:28;98709.28;;;1.72;64.31
72798;BME280;61084;55.816;37.036;2023-03-31T05:50:57;98703.91;;;1.78;64.17
72798;BME280;61084;55.816;37.036;2023-03-31T05:53:24;98696.84;;;1.83;64.14
72798;BME280;61084;55.816;37.036;2023-03-31T05:55:58;98704.25;;;1.95;63.57
72798;BME280;61084;55.816;37.036;2023-03-31T05:58:27;98718.44;;;2.11;64.00
72798;BME280;61084;55.816;37.036;2023-03-31T06:01:00;98725.75;;;2.26;64.07
72798;BME280;61084;55.816;37.036;2023-03-31T06:03:26;98719.25;;;2.41;63.40
72798;BME280;61084;55.816;37.036;2023-03-31T06:05:52;98721.56;;;2.48;63.39
72798;BME280;61084;55.816;37.036;2023-03-31T06:08:18;98711.22;;;2.48;62.88
72798;BME280;61084;55.816;37.036;2023-03-31T06:10:44;98712.78;;;2.54;62.85
72798;BME280;61084;55.816;37.036;2023-03-31T06:13:10;98711.22;;;2.48;61.71
72798;BME280;61084;55.816;37.036;2023-03-31T06:15:36;98713.06;;;2.45;62.50
72798;BME280;61084;55.816;37.036;2023-03-31T06:18:02;98701.56;;;2.53;60.33
72798;BME280;61084;55.816;37.036;2023-03-31T06:20:28;98709.09;;;2.61;62.96
72798;BME280;61084;55.816;37.036;2023-03-31T06:22:54;98704.75;;;2.61;61.73
72798;BME280;61084;55.816;37.036;2023-03-31T06:25:20;98704.56;;;2.67;62.79
72798;BME280;61084;55.816;37.036;2023-03-31T06:27:46;98696.81;;;2.67;63.40
72798;BME280;61084;55.816;37.036;2023-03-31T06:30:12;98694.88;;;2.74;62.07
72798;BME280;61084;55.816;37.036;2023-03-31T06:32:37;98691.69;;;2.90;61.88
72798;BME280;61084;55.816;37.036;2023-03-31T06:35:03;98694.63;;;3.06;61.93
72798;BME280;61084;55.816;37.036;2023-03-31T06:37:29;98687.03;;;3.25;62.35
72798;BME280;61084;55.816;37.036;2023-03-31T06:39:55;98692.47;;;3.42;60.81
72798;BME280;61084;55.816;37.036;2023-03-31T06:42:21;98692.38;;;3.45;60.77
72798;BME280;61084;55.816;37.036;2023-03-31T06:44:47;98695.28;;;3.36;60.98
72798;BME280;61084;55.816;37.036;2023-03-31T06:47:13;98696.09;;;3.38;60.07
72798;BME280;61084;55.816;37.036;2023-03-31T06:49:38;98687.72;;;3.54;61.54
72798;BME280;61084;55.816;37.036;2023-03-31T06:52:04;98686.63;;;3.60;60.70
72798;BME280;61084;55.816;37.036;2023-03-31T06:54:30;98677.59;;;3.70;59.49
72798;BME280;61084;55.816;37.036;2023-03-31T06:56:56;98667.63;;;3.83;59.71
72798;BME280;61084;55.816;37.036;2023-03-31T06:59:22;98670.16;;;3.84;61.42
72798;BME280;61084;55.816;37.036;2023-03-31T07:01:47;98669.31;;;3.83;59.95
72798;BME280;61084;55.816;37.036;2023-03-31T07:04:15;98662.75;;;3.97;59.18
72798;BME280;61084;55.816;37.036;2023-03-31T07:06:40;98666.63;;;4.08;58.94
72798;BME280;61084;55.816;37.036;2023-03-31T07:09:06;98669.25;;;4.07;59.90
72798;BME280;61084;55.816;37.036;2023-03-31T07:11:32;98659.47;;;4.13;59.65
72798;BME280;61084;55.816;37.036;2023-03-31T07:13:58;98663.19;;;4.29;59.42
72798;BME280;61084;55.816;37.036;2023-03-31T07:16:23;98658.34;;;4.42;60.16
72798;BME280;61084;55.816;37.036;2023-03-31T07:18:57;98648.97;;;4.59;59.66
72798;BME280;61084;55.816;37.036;2023-03-31T07:21:24;98656.84;;;4.78;58.32
72798;BME280;61084;55.816;37.036;2023-03-31T07:23:50;98660.16;;;4.82;59.08
72798;BME280;61084;55.816;37.036;2023-03-31T07:26:16;98658.81;;;4.93;58.80
72798;BME280;61084;55.816;37.036;2023-03-31T07:28:44;98665.22;;;5.05;58.21
72798;BME280;61084;55.816;37.036;2023-03-31T07:31:12;98656.06;;;4.96;59.82
72798;BME280;61084;55.816;37.036;2023-03-31T07:33:38;98653.66;;;4.92;55.47
72798;BME280;61084;55.816;37.036;2023-03-31T07:36:04;98648.78;;;4.84;59.64
72798;BME280;61084;55.816;37.036;2023-03-31T07:38:30;98654.84;;;4.85;57.42
72798;BME280;61084;55.816;37.036;2023-03-31T07:40:56;98652.50;;;4.99;57.58
72798;BME280;61084;55.816;37.036;2023-03-31T07:43:22;98657.63;;;5.00;57.77
72798;BME280;61084;55.816;37.036;2023-03-31T07:45:48;98653.06;;;5.05;57.66
72798;BME280;61084;55.816;37.036;2023-03-31T07:48:13;98650.00;;;5.16;59.51
72798;BME280;61084;55.816;37.036;2023-03-31T07:50:39;98642.75;;;5.24;58.96
72798;BME280;61084;55.816;37.036;2023-03-31T07:53:13;98650.78;;;5.38;57.79
72798;BME280;61084;55.816;37.036;2023-03-31T07:55:39;98644.97;;;5.52;56.16
72798;BME280;61084;55.816;37.036;2023-03-31T07:58:05;98649.53;;;5.47;54.99
72798;BME280;61084;55.816;37.036;2023-03-31T08:00:31;98639.09;;;5.47;57.24
72798;BME280;61084;55.816;37.036;2023-03-31T08:02:56;98636.31;;;5.51;55.49
72798;BME280;61084;55.816;37.036;2023-03-31T08:05:22;98635.03;;;5.60;55.81
72798;BME280;61084;55.816;37.036;2023-03-31T08:07:49;98635.47;;;5.69;56.84
72798;BME280;61084;55.816;37.036;2023-03-31T08:10:17;98634.00;;;5.64;55.25
72798;BME280;61084;55.816;37.036;2023-03-31T08:12:43;98631.34;;;5.65;56.15
72798;BME280;61084;55.816;37.036;2023-03-31T08:15:09;98628.53;;;5.70;56.31
72798;BME280;61084;55.816;37.036;2023-03-31T08:17:36;98625.91;;;5.70;54.51
72798;BME280;61084;55.816;37.036;2023-03-31T08:20:03;98613.94;;;5.66;55.91
72798;BME280;61084;55.816;37.036;2023-03-31T08:22:31;98617.09;;;5.72;56.09
72798;BME280;61084;55.816;37.036;2023-03-31T08:24:57;98613.22;;;5.81;56.53
72798;BME280;61084;55.816;37.036;2023-03-31T08:27:23;98611.09;;;5.90;56.58
72798;BME280;61084;55.816;37.036;2023-03-31T08:29:50;98606.72;;;5.91;55.61
72798;BME280;61084;55.816;37.036;2023-03-31T08:32:16;98609.94;;;5.96;56.69
72798;BME280;61084;55.816;37.036;2023-03-31T08:34:42;98606.22;;;6.01;57.94
72798;BME280;61084;55.816;37.036;2023-03-31T08:37:08;98591.78;;;5.94;56.32
72798;BME280;61084;55.816;37.036;2023-03-31T08:39:35;98589.91;;;5.98;56.94
72798;BME280;61084;55.816;37.036;2023-03-31T08:47:42;98572.81;;;6.09;55.71
72798;BME280;61084;55.816;37.036;2023-03-31T08:50:15;98581.78;;;6.04;57.30
72798;BME280;61084;55.816;37.036;2023-03-31T08:52:46;98583.63;;;6.02;56.74
72798;BME280;61084;55.816;37.036;2023-03-31T08:55:23;98583.69;;;6.00;56.94
72798;BME280;61084;55.816;37.036;2023-03-31T08:57:59;98588.66;;;6.05;56.43
72798;BME280;61084;55.816;37.036;2023-03-31T09:00:34;98580.72;;;6.08;56.40
72798;BME280;61084;55.816;37.036;2023-03-31T09:06:05;98573.06;;;6.22;56.58
72798;BME280;61084;55.816;37.036;2023-03-31T09:08:35;98563.94;;;6.31;56.80
72798;BME280;61084;55.816;37.036;2023-03-31T09:17:15;98547.72;;;6.60;56.74
72798;BME280;61084;55.816;37.036;2023-03-31T09:22:20;98539.75;;;6.63;56.95
72798;BME280;61084;55.816;37.036;2023-03-31T09:25:15;98537.91;;;6.65;55.30
72798;BME280;61084;55.816;37.036;2023-03-31T09:27:44;98532.75;;;6.63;56.21
72798;BME280;61084;55.816;37.036;2023-03-31T09:30:16;98528.91;;;6.70;56.62
72798;BME280;61084;55.816;37.036;2023-03-31T09:32:51;98536.69;;;6.72;56.19
72798;BME280;61084;55.816;37.036;2023-03-31T09:35:21;98529.31;;;6.80;56.76
72798;BME280;61084;55.816;37.036;2023-03-31T09:37:48;98523.09;;;6.82;56.27
72798;BME280;61084;55.816;37.036;2023-03-31T09:40:18;98518.06;;;6.95;56.56
72798;BME280;61084;55.816;37.036;2023-03-31T09:42:46;98513.97;;;7.07;56.70
72798;BME280;61084;55.816;37.036;2023-03-31T09:45:17;98503.34;;;7.10;57.02
72798;BME280;61084;55.816;37.036;2023-03-31T09:47:48;98505.41;;;7.20;57.02
72798;BME280;61084;55.816;37.036;2023-03-31T09:50:16;98496.56;;;7.38;57.13
72798;BME280;61084;55.816;37.036;2023-03-31T09:52:45;98486.19;;;7.52;56.96
72798;BME280;61084;55.816;37.036;2023-03-31T09:57:59;98484.28;;;7.72;55.75
72798;BME280;61084;55.816;37.036;2023-03-31T10:00:26;98489.56;;;7.70;55.74
72798;BME280;61084;55.816;37.036;2023-03-31T10:02:54;98480.97;;;7.68;55.49
72798;BME280;61084;55.816;37.036;2023-03-31T10:05:36;98479.81;;;7.74;55.85
72798;BME280;61084;55.816;37.036;2023-03-31T10:08:31;98477.09;;;7.75;57.74
72798;BME280;61084;55.816;37.036;2023-03-31T10:13:46;98454.69;;;7.71;55.09
72798;BME280;61084;55.816;37.036;2023-03-31T10:16:20;98440.63;;;7.74;54.97
72798;BME280;61084;55.816;37.036;2023-03-31T10:18:46;98441.97;;;7.81;54.38
72798;BME280;61084;55.816;37.036;2023-03-31T10:21:24;98444.66;;;7.79;54.99
72798;BME280;61084;55.816;37.036;2023-03-31T10:23:50;98447.84;;;7.84;54.80
72798;BME280;61084;55.816;37.036;2023-03-31T10:26:25;98445.13;;;7.86;54.48
72798;BME280;61084;55.816;37.036;2023-03-31T10:28:52;98443.53;;;7.83;54.33
72798;BME280;61084;55.816;37.036;2023-03-31T10:31:24;98445.50;;;7.80;55.54
72798;BME280;61084;55.816;37.036;2023-03-31T10:33:51;98443.81;;;7.79;55.55
72798;BME280;61084;55.816;37.036;2023-03-31T10:36:25;98447.19;;;7.81;55.09
72798;BME280;61084;55.816;37.036;2023-03-31T10:38:52;98440.28;;;7.80;55.44
72798;BME280;61084;55.816;37.036;2023-03-31T10:41:29;98438.03;;;7.74;55.16
72798;BME280;61084;55.816;37.036;2023-03-31T10:43:57;98432.84;;;7.72;55.42
72798;BME280;61084;55.816;37.036;2023-03-31T10:46:49;98427.81;;;7.69;54.71
72798;BME280;61084;55.816;37.036;2023-03-31T10:51:53;98426.97;;;7.69;54.14
72798;BME280;61084;55.816;37.036;2023-03-31T10:54:19;98427.72;;;7.71;54.95
72798;BME280;61084;55.816;37.036;2023-03-31T10:56:48;98430.25;;;7.72;54.97
72798;BME280;61084;55.816;37.036;2023-03-31T11:07:22;98417.38;;;7.69;55.04
72798;BME280;61084;55.816;37.036;2023-03-31T11:12:41;98402.81;;;7.65;54.62
72798;BME280;61084;55.816;37.036;2023-03-31T11:15:22;98403.16;;;7.59;55.70
72798;BME280;61084;55.816;37.036;2023-03-31T11:29:02;98393.56;;;7.44;55.70
72798;BME280;61084;55.816;37.036;2023-03-31T11:43:02;98376.34;;;7.41;55.58
72798;BME280;61084;55.816;37.036;2023-03-31T11:45:35;98366.06;;;7.38;55.61
72798;BME280;61084;55.816;37.036;2023-03-31T11:48:08;98370.53;;;7.36;56.04
72798;BME280;61084;55.816;37.036;2023-03-31T11:50:39;98361.19;;;7.32;56.06
72798;BME280;61084;55.816;37.036;2023-03-31T11:53:19;98358.75;;;7.29;55.90
72798;BME280;61084;55.816;37.036;2023-03-31T11:55:47;98352.66;;;7.29;55.53
72798;BME280;61084;55.816;37.036;2023-03-31T11:58:19;98355.13;;;7.32;55.59
72798;BME280;61084;55.816;37.036;2023-03-31T12:07:01;98349.81;;;7.33;55.93
72798;BME280;61084;55.816;37.036;2023-03-31T12:12:33;98331.00;;;7.42;55.72
72798;BME280;61084;55.816;37.036;2023-03-31T12:17:55;98331.38;;;7.36;55.72
72798;BME280;61084;55.816;37.036;2023-03-31T12:20:32;98331.13;;;7.41;55.66
72798;BME280;61084;55.816;37.036;2023-03-31T12:23:00;98320.84;;;7.38;56.02
72798;BME280;61084;55.816;37.036;2023-03-31T12:28:09;98311.41;;;7.35;55.73
72798;BME280;61084;55.816;37.036;2023-03-31T12:30:43;98308.63;;;7.38;55.90
72798;BME280;61084;55.816;37.036;2023-03-31T12:33:30;98312.09;;;7.39;56.47
72798;BME280;61084;55.816;37.036;2023-03-31T12:41:13;98306.38;;;7.32;56.31
72798;BME280;61084;55.816;37.036;2023-03-31T12:49:28;98303.25;;;7.41;55.74
72798;BME280;61084;55.816;37.036;2023-03-31T12:52:14;98298.56;;;7.46;55.58
72798;BME280;61084;55.816;37.036;2023-03-31T12:54:49;98288.88;;;7.48;55.77
72798;BME280;61084;55.816;37.036;2023-03-31T12:57:22;98293.09;;;7.51;56.03
72798;BME280;61084;55.816;37.036;2023-03-31T13:02:37;98287.88;;;7.51;55.95
72798;BME280;61084;55.816;37.036;2023-03-31T13:08:04;98280.78;;;7.53;55.72
72798;BME280;61084;55.816;37.036;2023-03-31T13:10:32;98281.81;;;7.50;56.15
72798;BME280;61084;55.816;37.036;2023-03-31T13:13:04;98271.56;;;7.47;55.99
72798;BME280;61084;55.816;37.036;2023-03-31T13:15:31;98276.69;;;7.49;56.25
72798;BME280;61084;55.816;37.036;2023-03-31T13:18:00;98276.56;;;7.50;56.65
72798;BME280;61084;55.816;37.036;2023-03-31T13:25:34;98281.81;;;7.50;56.05
72798;BME280;61084;55.816;37.036;2023-03-31T13:28:15;98276.78;;;7.47;56.20
72798;BME280;61084;55.816;37.036;2023-03-31T13:33:09;98272.47;;;7.46;55.95
72798;BME280;61084;55.816;37.036;2023-03-31T13:35:39;98275.94;;;7.47;56.19
72798;BME280;61084;55.816;37.036;2023-03-31T13:41:29;98268.84;;;7.49;56.06
72798;BME280;61084;55.816;37.036;2023-03-31T13:47:30;98265.31;;;7.50;56.03
72798;BME280;61084;55.816;37.036;2023-03-31T13:52:12;98261.84;;;7.49;56.23
72798;BME280;61084;55.816;37.036;2023-03-31T14:00:46;98254.19;;;7.46;56.36
72798;BME280;61084;55.816;37.036;2023-03-31T14:03:56;98258.56;;;7.46;56.05
72798;BME280;61084;55.816;37.036;2023-03-31T14:09:04;98263.13;;;7.42;56.23
72798;BME280;61084;55.816;37.036;2023-03-31T14:11:32;98253.81;;;7.38;56.41
72798;BME280;61084;55.816;37.036;2023-03-31T14:19:22;98243.81;;;7.31;55.94
72798;BME280;61084;55.816;37.036;2023-03-31T14:25:13;98242.31;;;7.27;56.54
72798;BME280;61084;55.816;37.036;2023-03-31T14:28:03;98238.09;;;7.24;56.46
72798;BME280;61084;55.816;37.036;2023-03-31T14:30:51;98233.72;;;7.25;56.71
72798;BME280;61084;55.816;37.036;2023-03-31T14:36:03;98242.03;;;7.17;56.29
72798;BME280;61084;55.816;37.036;2023-03-31T14:38:32;98233.34;;;7.17;56.75
72798;BME280;61084;55.816;37.036;2023-03-31T14:40:58;98247.25;;;7.17;56.49
72798;BME280;61084;55.816;37.036;2023-03-31T14:43:33;98238.66;;;7.15;56.69
72798;BME280;61084;55.816;37.036;2023-03-31T14:46:03;98239.09;;;7.08;56.79
72798;BME280;61084;55.816;37.036;2023-03-31T14:48:49;98240.09;;;7.05;56.31
72798;BME280;61084;55.816;37.036;2023-03-31T14:51:22;98240.09;;;7.05;56.61
72798;BME280;61084;55.816;37.036;2023-03-31T14:53:56;98238.44;;;7.04;56.42
72798;BME280;61084;55.816;37.036;2023-03-31T14:56:37;98237.69;;;7.02;56.44
72798;BME280;61084;55.816;37.036;2023-03-31T14:59:12;98234.41;;;6.99;56.68
72798;BME280;61084;55.816;37.036;2023-03-31T15:01:47;98227.78;;;6.93;56.89
72798;BME280;61084;55.816;37.036;2023-03-31T15:04:15;98233.00;;;6.77;56.71
72798;BME280;61084;55.816;37.036;2023-03-31T15:06:46;98235.97;;;6.71;56.74
72798;BME280;61084;55.816;37.036;2023-03-31T15:09:24;98234.38;;;6.69;57.30
72798;BME280;61084;55.816;37.036;2023-03-31T15:11:57;98230.16;;;6.66;57.06
72798;BME280;61084;55.816;37.036;2023-03-31T15:14:32;98237.06;;;6.67;57.06
72798;BME280;61084;55.816;37.036;2023-03-31T15:17:00;98235.28;;;6.68;57.69
72798;BME280;61084;55.816;37.036;2023-03-31T15:19:32;98235.47;;;6.65;57.18
72798;BME280;61084;55.816;37.036;2023-03-31T15:22:19;98241.69;;;6.62;57.71
72798;BME280;61084;55.816;37.036;2023-03-31T15:24:53;98241.44;;;6.51;57.55
72798;BME280;61084;55.816;37.036;2023-03-31T15:28:14;98243.38;;;6.48;57.49
72798;BME280;61084;55.816;37.036;2023-03-31T15:30:21;98241.69;;;6.47;57.28
72798;BME280;61084;55.816;37.036;2023-03-31T15:32:48;98240.03;;;6.46;57.66
72798;BME280;61084;55.816;37.036;2023-03-31T15:35:24;98245.25;;;6.46;58.09
72798;BME280;61084;55.816;37.036;2023-03-31T15:37:54;98243.44;;;6.46;58.05
72798;BME280;61084;55.816;37.036;2023-03-31T15:40:23;98242.03;;;6.41;58.16
72798;BME280;61084;55.816;37.036;2023-03-31T15:46:03;98244.63;;;6.41;59.01
72798;BME280;61084;55.816;37.036;2023-03-31T15:48:33;98247.25;;;6.41;58.91
72798;BME280;61084;55.816;37.036;2023-03-31T15:51:04;98243.88;;;6.39;58.82
72798;BME280;61084;55.816;37.036;2023-03-31T15:53:35;98240.59;;;6.35;59.08
72798;BME280;61084;55.816;37.036;2023-03-31T15:56:02;98243.97;;;6.22;59.25
72798;BME280;61084;55.816;37.036;2023-03-31T15:58:46;98240.25;;;6.10;59.52